createdAt,value
2019-03-11T00:00:33.076Z,92.87
2019-03-11T00:03:01.769Z,92.75
2019-03-11T00:05:30.252Z,92.83
2019-03-11T00:07:58.744Z,92.82
2019-03-11T00:10:27.230Z,92.95
2019-03-11T00:12:55.757Z,92.75
2019-03-11T00:15:24.224Z,92.92
2019-03-11T00:17:52.768Z,92.93
2019-03-11T00:20:21.256Z,92.33
2019-03-11T00:22:49.769Z,92.38
2019-03-11T00:25:18.213Z,92.81
2019-03-11T00:27:46.682Z,92.37
2019-03-11T00:30:15.384Z,92.48
2019-03-11T00:32:43.948Z,92.54
2019-03-11T00:35:12.620Z,92.80
2019-03-11T00:37:41.109Z,92.25
2019-03-11T00:40:12.625Z,92.20
2019-03-11T00:42:41.107Z,92.57
2019-03-11T00:45:12.424Z,92.34
2019-03-11T00:47:40.927Z,92.83
2019-03-11T00:50:10.955Z,92.74
2019-03-11T00:52:39.557Z,92.51
2019-03-11T00:55:10.221Z,91.89
2019-03-11T00:57:38.727Z,91.66
2019-03-11T01:00:16.318Z,91.90
2019-03-11T01:02:44.826Z,91.66
2019-03-11T01:05:13.287Z,91.57
2019-03-11T01:07:41.863Z,91.41
2019-03-11T01:10:10.511Z,91.54
2019-03-11T01:12:39.022Z,90.83
2019-03-11T01:15:10.159Z,91.21
2019-03-11T01:17:38.670Z,91.23
2019-03-11T01:20:09.585Z,91.08
2019-03-11T01:22:38.068Z,90.44
2019-03-11T01:25:08.606Z,90.81
2019-03-11T01:27:37.082Z,90.88
2019-03-11T01:30:08.940Z,90.70
2019-03-11T01:32:37.422Z,90.70
2019-03-11T01:35:07.750Z,90.72
2019-03-11T01:37:36.243Z,90.91
2019-03-11T01:40:07.337Z,91.13
2019-03-11T01:42:35.859Z,90.91
2019-03-11T01:45:07.105Z,90.92
2019-03-11T01:47:35.588Z,90.74
2019-03-11T01:50:05.719Z,90.66
2019-03-11T01:52:34.198Z,91.07
2019-03-11T01:55:02.705Z,90.79
2019-03-11T01:57:31.194Z,90.62
2019-03-11T01:59:59.730Z,90.04
2019-03-11T02:02:28.225Z,90.80
2019-03-11T02:04:56.706Z,90.91
2019-03-11T02:07:25.190Z,90.58
2019-03-11T02:09:53.709Z,90.30
2019-03-11T02:12:22.149Z,90.29
2019-03-11T02:14:50.726Z,89.77
2019-03-11T02:17:19.193Z,90.07
2019-03-11T02:19:47.686Z,90.12
2019-03-11T02:22:16.267Z,90.02
2019-03-11T02:24:44.753Z,90.31
2019-03-11T02:27:13.229Z,90.75
2019-03-11T02:29:41.717Z,90.39
2019-03-11T02:32:10.181Z,90.51
2019-03-11T02:34:38.719Z,90.24
2019-03-11T02:37:07.165Z,90.24
2019-03-11T02:39:35.682Z,90.76
2019-03-11T02:42:04.207Z,91.08
2019-03-11T02:44:32.712Z,90.87
2019-03-11T02:47:01.210Z,90.85
2019-03-11T02:49:29.674Z,91.02
2019-03-11T02:51:58.141Z,91.25
2019-03-11T02:54:26.647Z,91.58
2019-03-11T02:56:55.131Z,91.72
2019-03-11T02:59:23.634Z,91.65
2019-03-11T03:01:53.744Z,91.82
2019-03-11T03:04:39.182Z,91.97
2019-03-11T03:07:07.666Z,91.86
2019-03-11T03:09:36.170Z,91.57
2019-03-11T03:12:04.872Z,92.21
2019-03-11T03:14:33.403Z,92.11
2019-03-11T03:17:02.009Z,91.99
2019-03-11T03:19:30.558Z,92.47
2019-03-11T03:21:59.048Z,91.92
2019-03-11T03:24:27.554Z,92.54
2019-03-11T03:26:56.033Z,92.96
2019-03-11T03:29:24.532Z,92.72
2019-03-11T03:31:52.995Z,93.05
2019-03-11T03:34:21.540Z,93.05
2019-03-11T03:36:50.054Z,93.03
2019-03-11T03:39:18.576Z,92.83
2019-03-11T03:41:47.058Z,92.96
2019-03-11T03:44:15.519Z,93.23
2019-03-11T03:46:44.047Z,92.96
2019-03-11T03:49:12.560Z,93.17
2019-03-11T03:51:41.009Z,92.66
2019-03-11T03:54:09.607Z,93.30
2019-03-11T03:56:38.107Z,92.78
2019-03-11T03:59:06.611Z,93.29
2019-03-11T04:01:35.115Z,93.70
2019-03-11T04:04:03.572Z,93.25
2019-03-11T04:06:32.062Z,93.04
2019-03-11T04:09:00.580Z,93.90
2019-03-11T04:11:29.046Z,93.75
2019-03-11T04:13:57.508Z,93.98
2019-03-11T04:16:26.056Z,93.77
2019-03-11T04:18:55.799Z,93.72
2019-03-11T04:21:24.472Z,93.57
2019-03-11T04:23:53.105Z,93.66
2019-03-11T04:26:23.103Z,93.84
2019-03-11T04:28:51.574Z,93.61
2019-03-11T04:31:20.107Z,93.80
2019-03-11T04:33:48.578Z,93.96
2019-03-11T04:36:17.083Z,93.42
2019-03-11T04:38:45.536Z,93.77
2019-03-11T04:41:14.051Z,93.66
2019-03-11T04:43:42.515Z,93.45
2019-03-11T04:46:11.062Z,93.66
2019-03-11T04:48:39.495Z,93.50
2019-03-11T04:51:07.992Z,93.71
2019-03-11T04:53:36.554Z,93.72
2019-03-11T04:56:05.062Z,93.85
2019-03-11T04:58:33.595Z,94.04
2019-03-11T05:01:02.106Z,93.75
2019-03-11T05:03:30.588Z,93.43
2019-03-11T05:05:59.089Z,93.75
2019-03-11T05:08:27.552Z,93.94
2019-03-11T05:10:56.049Z,93.36
2019-03-11T05:13:24.510Z,93.86
2019-03-11T05:15:53.000Z,93.47
2019-03-11T05:18:21.481Z,93.22
2019-03-11T05:20:49.977Z,93.22
2019-03-11T05:23:18.443Z,92.99
2019-03-11T05:25:46.938Z,93.50
2019-03-11T05:28:15.553Z,93.35
2019-03-11T05:30:44.020Z,93.47
2019-03-11T05:33:12.519Z,93.08
2019-03-11T05:35:41.006Z,93.28
2019-03-11T05:38:09.521Z,93.26
2019-03-11T05:40:38.006Z,92.90
2019-03-11T05:43:06.523Z,92.97
2019-03-11T05:45:35.007Z,92.54
2019-03-11T05:48:03.504Z,92.54
2019-03-11T05:50:32.021Z,92.08
2019-03-11T05:53:00.638Z,91.91
2019-03-11T05:55:29.104Z,91.55
2019-03-11T05:57:57.615Z,91.54
2019-03-11T06:00:35.030Z,91.25
2019-03-11T06:03:03.519Z,91.51
2019-03-11T06:05:31.994Z,91.34
2019-03-11T06:08:00.505Z,91.15
2019-03-11T06:10:29.120Z,90.63
2019-03-11T06:12:57.642Z,90.67
2019-03-11T06:15:26.114Z,90.62
2019-03-11T06:17:54.661Z,90.49
2019-03-11T06:20:33.580Z,90.06
2019-03-11T06:23:03.736Z,89.80
2019-03-11T06:25:32.292Z,90.16
2019-03-11T06:28:00.872Z,89.99
2019-03-11T06:30:29.353Z,89.66
2019-03-11T06:32:57.848Z,89.73
2019-03-11T06:35:26.328Z,89.43
2019-03-11T06:37:54.867Z,89.44
2019-03-11T06:40:23.357Z,88.83
2019-03-11T06:42:51.843Z,88.90
2019-03-11T06:45:20.374Z,88.73
2019-03-11T06:47:50.062Z,88.75
2019-03-11T06:50:18.546Z,88.96
2019-03-11T06:52:47.045Z,88.39
2019-03-11T06:55:15.526Z,88.26
2019-03-11T06:57:44.019Z,87.93
2019-03-11T07:00:17.702Z,88.11
2019-03-11T07:02:46.386Z,88.24
2019-03-11T07:05:20.547Z,87.85
2019-03-11T07:07:45.085Z,87.60
2019-03-11T07:10:15.711Z,87.66
2019-03-11T07:12:44.199Z,87.64
2019-03-11T07:15:14.320Z,87.20
2019-03-11T07:17:42.826Z,86.75
2019-03-11T07:20:14.175Z,86.89
2019-03-11T07:22:42.672Z,86.59
2019-03-11T07:25:11.371Z,86.96
2019-03-11T07:27:39.900Z,86.97
2019-03-11T07:30:19.404Z,87.15
2019-03-11T07:32:48.082Z,86.64
2019-03-11T07:35:16.759Z,86.75
2019-03-11T07:37:45.307Z,86.78
2019-03-11T07:40:29.268Z,86.00
2019-03-11T07:42:48.370Z,85.49
2019-03-11T07:45:17.581Z,84.97
2019-03-11T07:47:46.233Z,85.40
2019-03-11T07:50:16.329Z,85.03
2019-03-11T07:52:45.099Z,84.84
2019-03-11T07:55:14.318Z,84.74
2019-03-11T07:57:43.019Z,84.48
2019-03-11T08:00:14.531Z,84.46
2019-03-11T08:02:43.119Z,84.47
2019-03-11T08:05:11.654Z,84.45
2019-03-11T08:07:40.122Z,84.72
2019-03-11T08:10:11.659Z,84.36
2019-03-11T08:12:40.219Z,83.83
2019-03-11T08:15:11.938Z,83.57
2019-03-11T08:17:40.410Z,83.55
2019-03-11T08:20:11.376Z,83.24
2019-03-11T08:22:39.865Z,83.23
2019-03-11T08:25:10.400Z,82.37
2019-03-11T08:27:38.963Z,82.45
2019-03-11T08:30:19.018Z,83.30
2019-03-11T08:32:47.497Z,82.69
2019-03-11T08:35:16.127Z,82.73
2019-03-11T08:37:44.733Z,82.92
2019-03-11T08:40:15.461Z,82.94
2019-03-11T08:42:43.957Z,82.63
2019-03-11T08:45:14.727Z,82.44
2019-03-11T08:47:43.398Z,82.89
2019-03-11T08:50:13.891Z,82.54
2019-03-11T08:52:42.366Z,84.58
2019-03-11T08:55:11.312Z,82.92
2019-03-11T08:57:41.238Z,82.45
2019-03-11T09:00:12.918Z,83.04
2019-03-11T09:02:41.388Z,82.70
2019-03-11T09:05:13.970Z,83.12
2019-03-11T09:07:42.463Z,82.63
2019-03-11T09:10:13.731Z,82.76
2019-03-11T09:12:42.250Z,82.62
2019-03-11T09:15:15.527Z,82.37
2019-03-11T09:17:44.009Z,82.35
2019-03-11T09:20:14.730Z,82.64
2019-03-11T09:22:43.190Z,82.60
2019-03-11T09:25:20.123Z,82.52
2019-03-11T09:27:50.771Z,82.42
2019-03-11T09:30:21.870Z,81.88
2019-03-11T09:32:52.117Z,81.55
2019-03-11T09:35:20.847Z,81.62
2019-03-11T09:37:49.389Z,80.99
2019-03-11T09:40:21.852Z,80.26
2019-03-11T09:42:50.386Z,80.59
2019-03-11T09:45:19.952Z,80.15
2019-03-11T09:47:48.752Z,80.82
2019-03-11T09:50:18.169Z,79.68
2019-03-11T09:52:46.800Z,80.17
2019-03-11T09:55:23.592Z,80.28
2019-03-11T09:57:52.072Z,79.62
2019-03-11T10:00:22.534Z,79.95
2019-03-11T10:02:52.676Z,78.31
2019-03-11T10:05:21.235Z,79.16
2019-03-11T10:07:50.108Z,79.20
2019-03-11T10:10:23.922Z,78.78
2019-03-11T10:12:52.583Z,77.98
2019-03-11T10:15:24.633Z,79.44
2019-03-11T10:17:53.264Z,78.64
2019-03-11T10:20:22.109Z,79.89
2019-03-11T10:22:50.611Z,80.47
2019-03-11T10:25:20.111Z,80.30
2019-03-11T10:27:48.619Z,79.95
2019-03-11T10:30:21.228Z,80.25
2019-03-11T10:32:49.983Z,80.50
2019-03-11T10:35:37.384Z,80.95
2019-03-11T10:37:52.139Z,80.25
2019-03-11T10:40:28.606Z,79.41
2019-03-11T10:42:57.119Z,79.74
2019-03-11T10:45:31.620Z,79.28
2019-03-11T10:47:56.539Z,79.57
2019-03-11T10:50:25.040Z,80.25
2019-03-11T10:52:53.521Z,78.66
2019-03-11T10:55:26.013Z,79.34
2019-03-11T10:57:56.117Z,77.91
2019-03-11T11:00:30.349Z,78.14
2019-03-11T11:02:58.984Z,78.13
2019-03-11T11:05:28.507Z,77.59
2019-03-11T11:07:57.070Z,77.10
2019-03-11T11:10:25.652Z,76.50
2019-03-11T11:12:54.187Z,76.01
2019-03-11T11:15:29.843Z,77.28
2019-03-11T11:17:58.415Z,77.84
2019-03-11T11:20:28.160Z,77.59
2019-03-11T11:22:56.641Z,78.70
2019-03-11T11:25:26.164Z,78.94
2019-03-11T11:27:54.935Z,79.11
2019-03-11T11:30:25.547Z,79.10
2019-03-11T11:32:54.191Z,78.74
2019-03-11T11:35:22.712Z,79.29
2019-03-11T11:37:51.360Z,79.92
2019-03-11T11:40:26.983Z,80.06
2019-03-11T11:42:55.621Z,80.73
2019-03-11T11:45:28.344Z,80.87
2019-03-11T11:47:57.394Z,81.29
2019-03-11T11:50:26.580Z,82.19
2019-03-11T11:52:55.642Z,82.84
2019-03-11T11:55:24.526Z,82.33
2019-03-11T11:57:53.285Z,82.42
2019-03-11T12:00:26.480Z,83.17
2019-03-11T12:02:54.977Z,83.36
2019-03-11T12:05:23.718Z,83.35
2019-03-11T12:07:52.586Z,84.03
2019-03-11T12:10:29.069Z,84.94
2019-03-11T12:12:57.793Z,84.82
2019-03-11T12:15:26.345Z,84.89
2019-03-11T12:17:54.907Z,84.32
2019-03-11T12:20:29.071Z,83.77
2019-03-11T12:22:57.737Z,85.29
2019-03-11T12:25:26.448Z,85.37
2019-03-11T12:27:57.881Z,85.66
2019-03-11T12:30:29.851Z,84.96
2019-03-11T12:32:58.741Z,85.19
2019-03-11T12:35:27.874Z,85.18
2019-03-11T12:37:57.008Z,84.49
2019-03-11T12:40:25.907Z,84.63
2019-03-11T12:42:54.392Z,85.27
2019-03-11T12:45:24.937Z,83.76
2019-03-11T12:47:53.452Z,84.15
2019-03-11T12:50:29.798Z,84.93
2019-03-11T12:52:58.298Z,84.73
2019-03-11T12:55:26.812Z,84.75
2019-03-11T12:57:55.312Z,84.80
2019-03-11T13:00:24.988Z,84.61
2019-03-11T13:02:53.659Z,83.71
2019-03-11T13:05:22.195Z,83.59
2019-03-11T13:07:50.935Z,83.45
2019-03-11T13:10:22.478Z,83.64
2019-03-11T13:12:51.304Z,82.77
2019-03-11T13:15:19.799Z,81.96
2019-03-11T13:17:48.737Z,81.91
2019-03-11T13:20:23.158Z,81.15
2019-03-11T13:22:52.791Z,81.14
2019-03-11T13:25:21.361Z,80.85
2019-03-11T13:27:49.863Z,80.87
2019-03-11T13:30:19.065Z,79.39
2019-03-11T13:32:47.627Z,78.64
2019-03-11T13:35:16.090Z,78.24
2019-03-11T13:37:44.689Z,78.19
2019-03-11T13:40:15.490Z,77.97
2019-03-11T13:42:44.029Z,77.38
2019-03-11T13:45:17.733Z,77.15
2019-03-11T13:47:46.293Z,76.45
2019-03-11T13:50:16.416Z,77.68
2019-03-11T13:52:45.030Z,77.11
2019-03-11T13:55:16.059Z,77.41
2019-03-11T13:57:44.733Z,77.51
2019-03-11T14:00:18.323Z,77.75
2019-03-11T14:02:46.821Z,77.70
2019-03-11T14:05:15.577Z,77.25
2019-03-11T14:07:44.155Z,77.50
2019-03-11T14:10:13.972Z,77.18
2019-03-11T14:12:42.552Z,77.19
2019-03-11T14:15:15.907Z,78.35
2019-03-11T14:17:44.407Z,78.85
2019-03-11T14:20:14.015Z,79.22
2019-03-11T14:22:42.578Z,79.57
2019-03-11T14:25:12.029Z,79.54
2019-03-11T14:27:40.489Z,78.04
2019-03-11T14:30:20.852Z,78.36
2019-03-11T14:32:49.400Z,78.35
2019-03-11T14:35:17.885Z,78.26
2019-03-11T14:37:46.420Z,78.20
2019-03-11T14:40:17.199Z,78.41
2019-03-11T14:42:45.826Z,78.04
2019-03-11T14:45:18.956Z,78.36
2019-03-11T14:47:47.458Z,77.72
2019-03-11T14:50:16.794Z,77.34
2019-03-11T14:52:45.386Z,77.86
2019-03-11T14:55:14.811Z,77.40
2019-03-11T14:57:43.379Z,76.80
2019-03-11T15:00:19.369Z,76.69
2019-03-11T15:02:48.573Z,76.51
2019-03-11T15:05:18.610Z,75.49
2019-03-11T15:07:47.989Z,76.29
2019-03-11T15:10:18.961Z,75.48
2019-03-11T15:12:47.798Z,75.92
2019-03-11T15:15:26.041Z,75.65
2019-03-11T15:17:54.610Z,75.82
2019-03-11T15:20:23.060Z,75.79
2019-03-11T15:22:51.709Z,75.36
2019-03-11T15:25:20.976Z,75.87
2019-03-11T15:27:49.478Z,75.69
2019-03-11T15:30:23.960Z,75.29
2019-03-11T15:32:52.436Z,75.34
2019-03-11T15:35:21.433Z,74.90
2019-03-11T15:37:49.969Z,74.84
2019-03-11T15:40:21.419Z,74.63
2019-03-11T15:42:49.919Z,74.60
2019-03-11T15:45:19.401Z,74.37
2019-03-11T15:47:48.056Z,74.18
2019-03-11T15:50:31.240Z,74.33
2019-03-11T15:52:59.724Z,74.81
2019-03-11T15:55:28.248Z,75.33
2019-03-11T15:57:56.806Z,75.27
2019-03-11T16:00:25.390Z,75.66
2019-03-11T16:02:54.036Z,75.65
2019-03-11T16:05:23.895Z,75.44
2019-03-11T16:07:52.847Z,75.74
2019-03-11T16:10:21.711Z,75.71
2019-03-11T16:12:50.385Z,75.67
2019-03-11T16:15:19.241Z,75.96
2019-03-11T16:17:49.358Z,76.22
2019-03-11T16:20:20.062Z,76.01
2019-03-11T16:22:48.874Z,76.48
2019-03-11T16:25:17.593Z,76.26
2019-03-11T16:27:46.062Z,76.33
2019-03-11T16:30:23.559Z,76.41
2019-03-11T16:32:59.476Z,77.00
2019-03-11T16:35:24.337Z,77.03
2019-03-11T16:37:52.798Z,76.75
2019-03-11T16:40:22.379Z,77.38
2019-03-11T16:42:50.882Z,77.68
2019-03-11T16:45:20.693Z,77.72
2019-03-11T16:47:49.453Z,77.39
2019-03-11T16:50:25.905Z,77.81
2019-03-11T16:52:54.476Z,77.34
2019-03-11T16:55:28.724Z,77.35
2019-03-11T16:57:57.213Z,77.41
2019-03-11T17:00:27.339Z,77.74
2019-03-11T17:02:55.810Z,77.94
2019-03-11T17:05:24.583Z,77.46
2019-03-11T17:07:53.104Z,78.10
2019-03-11T17:10:23.102Z,78.11
2019-03-11T17:12:51.742Z,78.45
2019-03-11T17:15:20.419Z,78.35
2019-03-11T17:17:48.865Z,78.36
2019-03-11T17:20:18.915Z,78.64
2019-03-11T17:22:47.438Z,78.65
2019-03-11T17:25:16.293Z,79.33
2019-03-11T17:27:44.789Z,78.62
2019-03-11T17:30:19.001Z,78.70
2019-03-11T17:32:47.613Z,79.31
2019-03-11T17:35:17.155Z,78.63
2019-03-11T17:37:46.271Z,78.45
2019-03-11T17:40:19.731Z,78.80
2019-03-11T17:42:48.275Z,78.83
2019-03-11T17:45:17.244Z,79.18
2019-03-11T17:47:45.811Z,78.95
2019-03-11T17:50:21.450Z,79.28
2019-03-11T17:52:50.405Z,79.81
2019-03-11T17:55:20.139Z,79.04
2019-03-11T17:57:48.745Z,79.44
2019-03-11T18:00:28.780Z,79.07
2019-03-11T18:02:57.431Z,79.68
2019-03-11T18:05:25.918Z,79.82
2019-03-11T18:07:54.484Z,79.75
2019-03-11T18:10:22.985Z,79.33
2019-03-11T18:12:51.638Z,79.20
2019-03-11T18:15:20.218Z,79.27
2019-03-11T18:17:48.746Z,79.06
2019-03-11T18:20:18.306Z,79.06
2019-03-11T18:22:48.345Z,79.11
2019-03-11T18:25:19.089Z,79.22
2019-03-11T18:27:47.637Z,79.92
2019-03-11T18:30:24.045Z,80.69
2019-03-11T18:32:52.516Z,82.07
2019-03-11T18:35:21.100Z,84.16
2019-03-11T18:37:49.688Z,85.40
2019-03-11T18:40:20.111Z,85.63
2019-03-11T18:42:50.199Z,85.03
2019-03-11T18:45:18.927Z,85.09
2019-03-11T18:47:47.627Z,86.46
2019-03-11T18:50:24.250Z,87.00
2019-03-11T18:52:52.758Z,88.82
2019-03-11T18:55:21.595Z,88.87
2019-03-11T18:57:50.273Z,88.37
2019-03-11T19:00:20.264Z,89.68
2019-03-11T19:02:48.762Z,90.95
2019-03-11T19:05:21.406Z,90.04
2019-03-11T19:07:49.968Z,89.31
2019-03-11T19:10:18.854Z,90.06
2019-03-11T19:12:47.348Z,91.10
2019-03-11T19:15:20.676Z,90.39
2019-03-11T19:17:49.307Z,89.72
2019-03-11T19:20:20.339Z,90.09
2019-03-11T19:22:49.032Z,89.93
2019-03-11T19:25:17.911Z,89.31
2019-03-11T19:27:46.796Z,89.27
2019-03-11T19:30:17.619Z,90.55
2019-03-11T19:32:46.169Z,89.80
2019-03-11T19:35:15.684Z,89.10
2019-03-11T19:37:44.291Z,88.37
2019-03-11T19:40:18.092Z,88.41
2019-03-11T19:42:46.661Z,89.86
2019-03-11T19:45:17.013Z,89.48
2019-03-11T19:47:45.688Z,89.64
2019-03-11T19:50:18.307Z,89.97
2019-03-11T19:52:57.648Z,90.20
2019-03-11T19:55:17.621Z,90.62
2019-03-11T19:57:46.101Z,89.54
2019-03-11T20:00:25.008Z,89.34
2019-03-11T20:02:53.677Z,89.59
2019-03-11T20:05:27.809Z,89.76
2019-03-11T20:07:56.757Z,89.25
2019-03-11T20:10:25.975Z,88.84
2019-03-11T20:12:54.596Z,89.29
2019-03-11T20:15:23.087Z,88.64
2019-03-11T20:17:51.653Z,90.04
2019-03-11T20:20:21.212Z,89.12
2019-03-11T20:22:51.048Z,88.62
2019-03-11T20:25:34.259Z,89.12
2019-03-11T20:28:02.912Z,89.57
2019-03-11T20:30:31.432Z,88.99
2019-03-11T20:32:59.890Z,88.73
2019-03-11T20:35:28.385Z,89.07
2019-03-11T20:37:56.956Z,89.11
2019-03-11T20:40:25.578Z,88.76
2019-03-11T20:42:55.013Z,88.71
2019-03-11T20:45:23.642Z,89.23
2019-03-11T20:47:52.183Z,91.15
2019-03-11T20:50:20.767Z,90.19
2019-03-11T20:52:49.314Z,89.67
2019-03-11T20:55:19.252Z,89.40
2019-03-11T20:57:48.218Z,88.92
2019-03-11T21:00:23.580Z,89.56
2019-03-11T21:02:52.148Z,89.95
2019-03-11T21:05:29.593Z,90.43
2019-03-11T21:07:58.082Z,90.77
2019-03-11T21:10:26.539Z,90.58
2019-03-11T21:12:55.123Z,91.26
2019-03-11T21:15:23.731Z,91.16
2019-03-11T21:17:52.566Z,91.06
2019-03-11T21:20:21.179Z,90.84
2019-03-11T21:22:49.755Z,91.05
2019-03-11T21:25:21.838Z,91.70
2019-03-11T21:27:50.424Z,91.66
2019-03-11T21:30:22.831Z,92.29
2019-03-11T21:32:51.583Z,91.59
2019-03-11T21:35:20.163Z,91.23
2019-03-11T21:37:48.704Z,92.27
2019-03-11T21:40:19.016Z,92.89
2019-03-11T21:42:47.895Z,93.46
2019-03-11T21:45:17.461Z,92.36
2019-03-11T21:47:46.228Z,92.47
2019-03-11T21:50:20.225Z,93.76
2019-03-11T21:52:48.836Z,93.14
2019-03-11T21:55:17.380Z,92.91
2019-03-11T21:57:46.263Z,92.52
2019-03-11T22:00:28.540Z,92.86
2019-03-11T22:02:48.200Z,93.37
2019-03-11T22:05:16.691Z,93.18
2019-03-11T22:07:45.188Z,93.85
2019-03-11T22:10:18.050Z,93.33
2019-03-11T22:12:46.583Z,93.77
2019-03-11T22:15:17.030Z,93.11
2019-03-11T22:17:45.565Z,92.53
2019-03-11T22:20:15.687Z,93.77
2019-03-11T22:22:44.592Z,94.91
2019-03-11T22:25:20.578Z,93.91
2019-03-11T22:27:49.068Z,94.13
2019-03-11T22:30:24.572Z,93.76
2019-03-11T22:32:53.187Z,94.29
2019-03-11T22:35:21.843Z,94.42
2019-03-11T22:37:50.573Z,94.17
2019-03-11T22:40:20.530Z,93.57
2019-03-11T22:42:49.006Z,93.30
2019-03-11T22:45:22.035Z,93.92
2019-03-11T22:47:52.456Z,94.48
2019-03-11T22:50:21.466Z,93.62
2019-03-11T22:52:50.373Z,93.64
2019-03-11T22:55:20.316Z,93.79
2019-03-11T22:57:49.078Z,95.08
2019-03-11T23:00:58.515Z,94.69
2019-03-11T23:03:27.478Z,94.31
2019-03-11T23:05:58.204Z,94.32
2019-03-11T23:08:26.583Z,94.52
2019-03-11T23:10:55.136Z,94.84
2019-03-11T23:13:23.612Z,95.36
2019-03-11T23:15:52.127Z,94.75
2019-03-11T23:18:20.600Z,95.46
2019-03-11T23:20:49.139Z,94.98
2019-03-11T23:23:17.612Z,94.48
2019-03-11T23:25:46.126Z,95.27
2019-03-11T23:28:14.583Z,95.42
2019-03-11T23:30:43.163Z,95.61
2019-03-11T23:33:11.644Z,95.31
2019-03-11T23:35:40.123Z,95.79
2019-03-11T23:38:08.637Z,95.38
2019-03-11T23:40:37.102Z,95.53
2019-03-11T23:43:05.562Z,95.86
2019-03-11T23:45:34.083Z,96.30
2019-03-11T23:48:02.544Z,96.76
2019-03-11T23:50:31.128Z,96.98
2019-03-11T23:52:59.580Z,96.82
2019-03-11T23:55:28.136Z,96.59
2019-03-11T23:57:56.635Z,96.67
